sensor_id;sensor_type;location;lat;lon;timestamp;P1;durP1;ratioP1;P2;durP2;ratioP2
45867;SDS011;31582;45.490;7.860;2023-05-14T01:02:54;0.87;;;0.67;;
45867;SDS011;31582;45.490;7.860;2023-05-14T01:05:21;0.60;;;0.50;;
45867;SDS011;31582;45.490;7.860;2023-05-14T01:07:54;1.20;;;0.70;;
45867;SDS011;31582;45.490;7.860;2023-05-14T01:10:24;0.93;;;0.75;;
45867;SDS011;31582;45.490;7.860;2023-05-14T01:13:08;0.65;;;0.50;;
45867;SDS011;31582;45.490;7.860;2023-05-14T01:15:46;0.90;;;0.50;;
45867;SDS011;31582;45.490;7.860;2023-05-14T01:18:15;0.77;;;0.60;;
45867;SDS011;31582;45.490;7.860;2023-05-14T01:20:44;0.90;;;0.70;;
45867;SDS011;31582;45.490;7.860;2023-05-14T01:23:11;0.77;;;0.60;;
45867;SDS011;31582;45.490;7.860;2023-05-14T01:25:40;1.05;;;0.60;;
45867;SDS011;31582;45.490;7.860;2023-05-14T01:28:12;0.93;;;0.73;;
45867;SDS011;31582;45.490;7.860;2023-05-14T01:30:56;1.00;;;0.70;;
45867;SDS011;31582;45.490;7.860;2023-05-14T01:33:28;0.90;;;0.70;;
45867;SDS011;31582;45.490;7.860;2023-05-14T01:35:56;1.55;;;0.77;;
45867;SDS011;31582;45.490;7.860;2023-05-14T01:38:23;1.88;;;0.77;;
45867;SDS011;31582;45.490;7.860;2023-05-14T01:40:53;1.55;;;0.80;;
45867;SDS011;31582;45.490;7.860;2023-05-14T01:43:20;1.60;;;0.90;;
45867;SDS011;31582;45.490;7.860;2023-05-14T01:45:48;1.45;;;0.80;;
45867;SDS011;31582;45.490;7.860;2023-05-14T01:48:15;0.82;;;0.60;;
45867;SDS011;31582;45.490;7.860;2023-05-14T01:50:42;1.05;;;0.90;;
45867;SDS011;31582;45.490;7.860;2023-05-14T01:53:10;1.48;;;0.70;;
45867;SDS011;31582;45.490;7.860;2023-05-14T01:55:37;1.30;;;0.63;;
45867;SDS011;31582;45.490;7.860;2023-05-14T01:58:04;0.88;;;0.68;;
45867;SDS011;31582;45.490;7.860;2023-05-14T02:00:31;0.70;;;0.60;;
45867;SDS011;31582;45.490;7.860;2023-05-14T02:02:57;0.80;;;0.65;;
45867;SDS011;31582;45.490;7.860;2023-05-14T02:05:24;0.80;;;0.80;;
45867;SDS011;31582;45.490;7.860;2023-05-14T02:07:51;0.60;;;0.60;;
45867;SDS011;31582;45.490;7.860;2023-05-14T02:10:18;1.83;;;1.00;;
45867;SDS011;31582;45.490;7.860;2023-05-14T02:12:45;1.50;;;1.25;;
45867;SDS011;31582;45.490;7.860;2023-05-14T02:15:12;1.20;;;1.10;;
45867;SDS011;31582;45.490;7.860;2023-05-14T02:17:39;1.08;;;0.90;;
45867;SDS011;31582;45.490;7.860;2023-05-14T02:20:06;0.70;;;0.70;;
45867;SDS011;31582;45.490;7.860;2023-05-14T02:22:35;1.10;;;0.60;;
45867;SDS011;31582;45.490;7.860;2023-05-14T02:25:02;0.80;;;0.80;;
45867;SDS011;31582;45.490;7.860;2023-05-14T02:27:29;0.55;;;0.52;;
45867;SDS011;31582;45.490;7.860;2023-05-14T02:29:56;0.97;;;0.70;;
45867;SDS011;31582;45.490;7.860;2023-05-14T02:32:26;0.50;;;0.50;;
45867;SDS011;31582;45.490;7.860;2023-05-14T02:34:53;2.50;;;0.70;;
45867;SDS011;31582;45.490;7.860;2023-05-14T02:37:20;1.00;;;0.55;;
45867;SDS011;31582;45.490;7.860;2023-05-14T02:39:47;2.17;;;0.70;;
45867;SDS011;31582;45.490;7.860;2023-05-14T02:42:14;0.90;;;0.65;;
45867;SDS011;31582;45.490;7.860;2023-05-14T02:44:41;0.88;;;0.73;;
45867;SDS011;31582;45.490;7.860;2023-05-14T02:47:08;0.85;;;0.75;;
45867;SDS011;31582;45.490;7.860;2023-05-14T02:49:35;1.20;;;0.70;;
45867;SDS011;31582;45.490;7.860;2023-05-14T02:52:02;1.42;;;1.17;;
45867;SDS011;31582;45.490;7.860;2023-05-14T02:54:28;0.95;;;0.88;;
45867;SDS011;31582;45.490;7.860;2023-05-14T02:56:55;1.80;;;1.00;;
45867;SDS011;31582;45.490;7.860;2023-05-14T02:59:23;1.35;;;0.98;;
45867;SDS011;31582;45.490;7.860;2023-05-14T03:01:50;1.00;;;0.90;;
45867;SDS011;31582;45.490;7.860;2023-05-14T03:04:18;1.33;;;0.82;;
45867;SDS011;31582;45.490;7.860;2023-05-14T03:06:45;0.98;;;0.70;;
45867;SDS011;31582;45.490;7.860;2023-05-14T03:09:12;0.80;;;0.80;;
45867;SDS011;31582;45.490;7.860;2023-05-14T03:11:39;0.90;;;0.75;;
45867;SDS011;31582;45.490;7.860;2023-05-14T03:14:06;1.08;;;0.90;;
45867;SDS011;31582;45.490;7.860;2023-05-14T03:16:33;1.40;;;0.95;;
45867;SDS011;31582;45.490;7.860;2023-05-14T03:19:00;1.30;;;1.10;;
45867;SDS011;31582;45.490;7.860;2023-05-14T03:21:27;0.68;;;0.68;;
45867;SDS011;31582;45.490;7.860;2023-05-14T03:23:53;1.25;;;0.70;;
45867;SDS011;31582;45.490;7.860;2023-05-14T03:26:20;0.68;;;0.68;;
45867;SDS011;31582;45.490;7.860;2023-05-14T03:28:47;0.82;;;0.70;;
45867;SDS011;31582;45.490;7.860;2023-05-14T03:31:15;0.90;;;0.70;;
45867;SDS011;31582;45.490;7.860;2023-05-14T03:33:42;1.38;;;0.80;;
45867;SDS011;31582;45.490;7.860;2023-05-14T03:36:08;1.02;;;0.55;;
45867;SDS011;31582;45.490;7.860;2023-05-14T03:38:35;2.20;;;0.82;;
45867;SDS011;31582;45.490;7.860;2023-05-14T03:41:02;2.45;;;0.95;;
45867;SDS011;31582;45.490;7.860;2023-05-14T03:43:29;1.67;;;1.00;;
45867;SDS011;31582;45.490;7.860;2023-05-14T03:45:56;1.42;;;1.00;;
45867;SDS011;31582;45.490;7.860;2023-05-14T03:48:23;1.30;;;0.80;;
45867;SDS011;31582;45.490;7.860;2023-05-14T03:50:49;2.30;;;0.98;;
45867;SDS011;31582;45.490;7.860;2023-05-14T03:53:16;0.90;;;0.77;;
45867;SDS011;31582;45.490;7.860;2023-05-14T03:55:43;1.00;;;0.80;;
45867;SDS011;31582;45.490;7.860;2023-05-14T03:58:11;1.15;;;0.80;;
45867;SDS011;31582;45.490;7.860;2023-05-14T04:00:40;1.10;;;0.90;;
45867;SDS011;31582;45.490;7.860;2023-05-14T04:03:07;1.90;;;0.93;;
45867;SDS011;31582;45.490;7.860;2023-05-14T04:05:34;0.93;;;0.75;;
45867;SDS011;31582;45.490;7.860;2023-05-14T04:08:01;2.00;;;1.10;;
45867;SDS011;31582;45.490;7.860;2023-05-14T04:10:28;0.80;;;0.80;;
45867;SDS011;31582;45.490;7.860;2023-05-14T04:12:57;0.93;;;0.80;;
45867;SDS011;31582;45.490;7.860;2023-05-14T04:15:24;1.25;;;0.70;;
45867;SDS011;31582;45.490;7.860;2023-05-14T04:17:51;0.80;;;0.63;;
45867;SDS011;31582;45.490;7.860;2023-05-14T04:20:18;2.22;;;1.02;;
45867;SDS011;31582;45.490;7.860;2023-05-14T04:22:44;1.50;;;0.90;;
45867;SDS011;31582;45.490;7.860;2023-05-14T04:25:11;1.42;;;0.95;;
45867;SDS011;31582;45.490;7.860;2023-05-14T04:27:38;1.30;;;0.90;;
45867;SDS011;31582;45.490;7.860;2023-05-14T04:30:05;1.13;;;0.80;;
45867;SDS011;31582;45.490;7.860;2023-05-14T04:32:33;1.00;;;0.90;;
45867;SDS011;31582;45.490;7.860;2023-05-14T04:35:00;1.15;;;0.60;;
45867;SDS011;31582;45.490;7.860;2023-05-14T04:37:27;1.13;;;0.80;;
45867;SDS011;31582;45.490;7.860;2023-05-14T04:39:54;1.17;;;0.80;;
45867;SDS011;31582;45.490;7.860;2023-05-14T04:42:21;0.98;;;0.80;;
45867;SDS011;31582;45.490;7.860;2023-05-14T04:44:48;1.20;;;0.70;;
45867;SDS011;31582;45.490;7.860;2023-05-14T04:47:15;1.27;;;1.10;;
45867;SDS011;31582;45.490;7.860;2023-05-14T04:49:42;0.95;;;0.85;;
45867;SDS011;31582;45.490;7.860;2023-05-14T04:52:08;1.08;;;0.80;;
45867;SDS011;31582;45.490;7.860;2023-05-14T04:54:35;1.10;;;0.70;;
45867;SDS011;31582;45.490;7.860;2023-05-14T04:57:02;1.10;;;0.60;;
45867;SDS011;31582;45.490;7.860;2023-05-14T04:59:30;0.75;;;0.60;;
45867;SDS011;31582;45.490;7.860;2023-05-14T05:01:57;0.60;;;0.60;;
45867;SDS011;31582;45.490;7.860;2023-05-14T05:04:24;1.23;;;0.60;;
45867;SDS011;31582;45.490;7.860;2023-05-14T05:06:51;0.80;;;0.60;;
45867;SDS011;31582;45.490;7.860;2023-05-14T05:09:18;0.70;;;0.52;;
45867;SDS011;31582;45.490;7.860;2023-05-14T05:11:45;1.80;;;0.70;;
45867;SDS011;31582;45.490;7.860;2023-05-14T05:14:12;1.05;;;0.50;;
45867;SDS011;31582;45.490;7.860;2023-05-14T05:16:39;0.60;;;0.60;;
45867;SDS011;31582;45.490;7.860;2023-05-14T05:19:06;0.52;;;0.50;;
45867;SDS011;31582;45.490;7.860;2023-05-14T05:21:33;1.10;;;0.70;;
45867;SDS011;31582;45.490;7.860;2023-05-14T05:24:00;0.70;;;0.70;;
45867;SDS011;31582;45.490;7.860;2023-05-14T05:26:27;0.75;;;0.65;;
45867;SDS011;31582;45.490;7.860;2023-05-14T05:28:54;2.25;;;1.02;;
45867;SDS011;31582;45.490;7.860;2023-05-14T05:31:21;1.30;;;1.00;;
45867;SDS011;31582;45.490;7.860;2023-05-14T05:33:48;1.33;;;0.80;;
45867;SDS011;31582;45.490;7.860;2023-05-14T05:36:14;1.00;;;0.73;;
45867;SDS011;31582;45.490;7.860;2023-05-14T05:38:41;0.80;;;0.80;;
45867;SDS011;31582;45.490;7.860;2023-05-14T05:41:08;0.80;;;0.63;;
45867;SDS011;31582;45.490;7.860;2023-05-14T05:43:35;0.80;;;0.68;;
45867;SDS011;31582;45.490;7.860;2023-05-14T05:46:02;1.20;;;0.70;;
45867;SDS011;31582;45.490;7.860;2023-05-14T05:48:29;1.75;;;0.77;;
45867;SDS011;31582;45.490;7.860;2023-05-14T05:50:55;1.90;;;0.90;;
45867;SDS011;31582;45.490;7.860;2023-05-14T05:53:22;1.30;;;0.70;;
45867;SDS011;31582;45.490;7.860;2023-05-14T05:55:49;1.15;;;0.95;;
45867;SDS011;31582;45.490;7.860;2023-05-14T05:58:19;0.80;;;0.70;;
45867;SDS011;31582;45.490;7.860;2023-05-14T06:00:46;0.98;;;0.85;;
45867;SDS011;31582;45.490;7.860;2023-05-14T06:03:13;1.75;;;0.98;;
45867;SDS011;31582;45.490;7.860;2023-05-14T06:05:39;0.82;;;0.63;;
45867;SDS011;31582;45.490;7.860;2023-05-14T06:08:07;1.77;;;1.38;;
45867;SDS011;31582;45.490;7.860;2023-05-14T06:10:34;1.83;;;1.70;;
45867;SDS011;31582;45.490;7.860;2023-05-14T06:13:01;1.60;;;1.50;;
45867;SDS011;31582;45.490;7.860;2023-05-14T06:15:28;2.17;;;1.88;;
45867;SDS011;31582;45.490;7.860;2023-05-14T06:17:55;2.35;;;1.63;;
45867;SDS011;31582;45.490;7.860;2023-05-14T06:20:22;2.30;;;1.60;;
45867;SDS011;31582;45.490;7.860;2023-05-14T06:22:49;1.50;;;1.20;;
45867;SDS011;31582;45.490;7.860;2023-05-14T06:25:16;1.73;;;1.60;;
45867;SDS011;31582;45.490;7.860;2023-05-14T06:27:43;1.40;;;1.30;;
45867;SDS011;31582;45.490;7.860;2023-05-14T06:30:10;1.30;;;1.00;;
45867;SDS011;31582;45.490;7.860;2023-05-14T06:32:37;1.30;;;1.15;;
45867;SDS011;31582;45.490;7.860;2023-05-14T06:35:04;2.40;;;1.50;;
45867;SDS011;31582;45.490;7.860;2023-05-14T06:37:32;1.20;;;1.10;;
45867;SDS011;31582;45.490;7.860;2023-05-14T06:39:59;1.45;;;1.08;;
45867;SDS011;31582;45.490;7.860;2023-05-14T06:42:26;0.93;;;0.80;;
45867;SDS011;31582;45.490;7.860;2023-05-14T06:44:53;1.95;;;1.00;;
45867;SDS011;31582;45.490;7.860;2023-05-14T06:47:21;0.80;;;0.80;;
45867;SDS011;31582;45.490;7.860;2023-05-14T06:49:48;1.17;;;0.90;;
45867;SDS011;31582;45.490;7.860;2023-05-14T06:52:15;0.98;;;0.82;;
45867;SDS011;31582;45.490;7.860;2023-05-14T06:54:42;0.95;;;0.80;;
45867;SDS011;31582;45.490;7.860;2023-05-14T06:57:09;1.55;;;0.90;;
45867;SDS011;31582;45.490;7.860;2023-05-14T06:59:36;1.73;;;0.80;;
45867;SDS011;31582;45.490;7.860;2023-05-14T07:02:03;1.40;;;1.00;;
45867;SDS011;31582;45.490;7.860;2023-05-14T07:04:30;1.40;;;0.77;;
45867;SDS011;31582;45.490;7.860;2023-05-14T07:06:57;0.50;;;0.45;;
45867;SDS011;31582;45.490;7.860;2023-05-14T07:09:24;0.70;;;0.53;;
45867;SDS011;31582;45.490;7.860;2023-05-14T07:11:50;1.35;;;0.60;;
45867;SDS011;31582;45.490;7.860;2023-05-14T07:14:17;0.93;;;0.50;;
45867;SDS011;31582;45.490;7.860;2023-05-14T07:16:44;1.17;;;0.50;;
45867;SDS011;31582;45.490;7.860;2023-05-14T07:19:12;1.35;;;0.60;;
45867;SDS011;31582;45.490;7.860;2023-05-14T07:21:39;0.50;;;0.50;;
45867;SDS011;31582;45.490;7.860;2023-05-14T07:24:06;2.30;;;0.50;;
45867;SDS011;31582;45.490;7.860;2023-05-14T07:26:33;1.27;;;0.50;;
45867;SDS011;31582;45.490;7.860;2023-05-14T07:29:00;0.60;;;0.40;;
45867;SDS011;31582;45.490;7.860;2023-05-14T07:31:27;0.45;;;0.30;;
45867;SDS011;31582;45.490;7.860;2023-05-14T07:33:54;0.70;;;0.30;;
45867;SDS011;31582;45.490;7.860;2023-05-14T07:36:22;0.80;;;0.30;;
45867;SDS011;31582;45.490;7.860;2023-05-14T07:38:48;0.95;;;0.32;;
45867;SDS011;31582;45.490;7.860;2023-05-14T07:41:15;0.70;;;0.40;;
45867;SDS011;31582;45.490;7.860;2023-05-14T07:43:42;0.40;;;0.30;;
45867;SDS011;31582;45.490;7.860;2023-05-14T07:46:09;0.73;;;0.30;;
45867;SDS011;31582;45.490;7.860;2023-05-14T07:48:36;0.28;;;0.20;;
45867;SDS011;31582;45.490;7.860;2023-05-14T07:51:03;0.20;;;0.20;;
45867;SDS011;31582;45.490;7.860;2023-05-14T07:53:30;0.20;;;0.20;;
45867;SDS011;31582;45.490;7.860;2023-05-14T07:55:57;0.40;;;0.22;;
45867;SDS011;31582;45.490;7.860;2023-05-14T07:58:25;0.82;;;0.20;;
45867;SDS011;31582;45.490;7.860;2023-05-14T08:00:53;1.10;;;0.40;;
45867;SDS011;31582;45.490;7.860;2023-05-14T08:03:20;0.80;;;0.20;;
45867;SDS011;31582;45.490;7.860;2023-05-14T08:05:47;1.17;;;0.45;;
45867;SDS011;31582;45.490;7.860;2023-05-14T08:08:14;1.27;;;0.50;;
45867;SDS011;31582;45.490;7.860;2023-05-14T08:10:42;0.68;;;0.28;;
45867;SDS011;31582;45.490;7.860;2023-05-14T08:13:09;0.35;;;0.30;;
45867;SDS011;31582;45.490;7.860;2023-05-14T08:15:36;1.58;;;0.50;;
45867;SDS011;31582;45.490;7.860;2023-05-14T08:18:03;1.17;;;0.30;;
45867;SDS011;31582;45.490;7.860;2023-05-14T08:20:30;0.40;;;0.20;;
45867;SDS011;31582;45.490;7.860;2023-05-14T08:22:57;0.93;;;0.43;;
45867;SDS011;31582;45.490;7.860;2023-05-14T08:25:23;1.20;;;0.50;;
45867;SDS011;31582;45.490;7.860;2023-05-14T08:27:50;2.30;;;0.40;;
45867;SDS011;31582;45.490;7.860;2023-05-14T08:30:19;0.50;;;0.30;;
45867;SDS011;31582;45.490;7.860;2023-05-14T08:32:47;0.70;;;0.30;;
45867;SDS011;31582;45.490;7.860;2023-05-14T08:35:14;0.70;;;0.30;;
45867;SDS011;31582;45.490;7.860;2023-05-14T08:37:41;1.20;;;0.40;;
45867;SDS011;31582;45.490;7.860;2023-05-14T08:40:09;1.02;;;0.40;;
45867;SDS011;31582;45.490;7.860;2023-05-14T08:42:37;0.30;;;0.30;;
45867;SDS011;31582;45.490;7.860;2023-05-14T08:45:10;0.30;;;0.30;;
45867;SDS011;31582;45.490;7.860;2023-05-14T08:47:48;0.50;;;0.40;;
45867;SDS011;31582;45.490;7.860;2023-05-14T08:50:16;0.40;;;0.30;;
45867;SDS011;31582;45.490;7.860;2023-05-14T08:52:48;1.05;;;0.47;;
45867;SDS011;31582;45.490;7.860;2023-05-14T08:55:16;0.43;;;0.30;;
45867;SDS011;31582;45.490;7.860;2023-05-14T08:57:43;0.68;;;0.43;;
45867;SDS011;31582;45.490;7.860;2023-05-14T09:00:12;0.40;;;0.30;;
45867;SDS011;31582;45.490;7.860;2023-05-14T09:02:40;0.60;;;0.30;;
45867;SDS011;31582;45.490;7.860;2023-05-14T09:05:09;0.60;;;0.32;;
45867;SDS011;31582;45.490;7.860;2023-05-14T09:07:36;0.90;;;0.40;;
45867;SDS011;31582;45.490;7.860;2023-05-14T09:10:03;1.20;;;0.40;;
45867;SDS011;31582;45.490;7.860;2023-05-14T09:12:31;0.45;;;0.20;;
45867;SDS011;31582;45.490;7.860;2023-05-14T09:14:58;0.20;;;0.20;;
45867;SDS011;31582;45.490;7.860;2023-05-14T09:17:25;0.30;;;0.20;;
45867;SDS011;31582;45.490;7.860;2023-05-14T09:19:55;0.60;;;0.20;;
45867;SDS011;31582;45.490;7.860;2023-05-14T09:22:22;0.20;;;0.20;;
45867;SDS011;31582;45.490;7.860;2023-05-14T09:25:02;0.22;;;0.22;;
45867;SDS011;31582;45.490;7.860;2023-05-14T09:27:34;0.22;;;0.20;;
45867;SDS011;31582;45.490;7.860;2023-05-14T09:30:05;0.30;;;0.20;;
45867;SDS011;31582;45.490;7.860;2023-05-14T09:32:40;1.10;;;0.30;;
45867;SDS011;31582;45.490;7.860;2023-05-14T09:35:17;0.40;;;0.30;;
45867;SDS011;31582;45.490;7.860;2023-05-14T09:37:52;1.30;;;0.40;;
45867;SDS011;31582;45.490;7.860;2023-05-14T09:40:20;0.73;;;0.40;;
45867;SDS011;31582;45.490;7.860;2023-05-14T09:42:49;0.50;;;0.30;;
45867;SDS011;31582;45.490;7.860;2023-05-14T09:45:16;0.43;;;0.40;;
45867;SDS011;31582;45.490;7.860;2023-05-14T09:47:43;0.45;;;0.22;;
45867;SDS011;31582;45.490;7.860;2023-05-14T09:50:11;1.42;;;0.30;;
45867;SDS011;31582;45.490;7.860;2023-05-14T09:52:38;0.60;;;0.25;;
45867;SDS011;31582;45.490;7.860;2023-05-14T09:55:05;0.60;;;0.20;;
45867;SDS011;31582;45.490;7.860;2023-05-14T09:57:33;0.50;;;0.22;;
45867;SDS011;31582;45.490;7.860;2023-05-14T10:00:00;0.17;;;0.10;;
45867;SDS011;31582;45.490;7.860;2023-05-14T10:02:37;0.22;;;0.10;;
45867;SDS011;31582;45.490;7.860;2023-05-14T10:05:06;0.57;;;0.30;;
45867;SDS011;31582;45.490;7.860;2023-05-14T10:07:38;0.50;;;0.20;;
45867;SDS011;31582;45.490;7.860;2023-05-14T10:10:11;0.55;;;0.40;;
45867;SDS011;31582;45.490;7.860;2023-05-14T10:12:56;0.50;;;0.20;;
45867;SDS011;31582;45.490;7.860;2023-05-14T10:15:32;0.40;;;0.25;;
45867;SDS011;31582;45.490;7.860;2023-05-14T10:18:20;0.30;;;0.20;;
45867;SDS011;31582;45.490;7.860;2023-05-14T10:20:52;0.47;;;0.20;;
45867;SDS011;31582;45.490;7.860;2023-05-14T10:23:30;0.60;;;0.40;;
45867;SDS011;31582;45.490;7.860;2023-05-14T10:25:58;0.50;;;0.32;;
45867;SDS011;31582;45.490;7.860;2023-05-14T10:28:26;0.47;;;0.30;;
45867;SDS011;31582;45.490;7.860;2023-05-14T10:30:53;0.60;;;0.25;;
45867;SDS011;31582;45.490;7.860;2023-05-14T10:33:20;1.45;;;0.32;;
45867;SDS011;31582;45.490;7.860;2023-05-14T10:35:52;0.43;;;0.30;;
45867;SDS011;31582;45.490;7.860;2023-05-14T10:38:33;0.35;;;0.20;;
45867;SDS011;31582;45.490;7.860;2023-05-14T10:41:02;0.40;;;0.20;;
45867;SDS011;31582;45.490;7.860;2023-05-14T10:43:40;0.30;;;0.20;;
45867;SDS011;31582;45.490;7.860;2023-05-14T10:46:10;0.70;;;0.30;;
45867;SDS011;31582;45.490;7.860;2023-05-14T10:48:39;0.40;;;0.20;;
45867;SDS011;31582;45.490;7.860;2023-05-14T10:51:08;0.35;;;0.20;;
45867;SDS011;31582;45.490;7.860;2023-05-14T10:53:40;1.83;;;0.20;;
45867;SDS011;31582;45.490;7.860;2023-05-14T10:56:09;0.15;;;0.10;;
45867;SDS011;31582;45.490;7.860;2023-05-14T10:58:43;0.82;;;0.32;;
45867;SDS011;31582;45.490;7.860;2023-05-14T11:01:11;0.73;;;0.20;;
45867;SDS011;31582;45.490;7.860;2023-05-14T11:03:39;1.10;;;0.20;;
45867;SDS011;31582;45.490;7.860;2023-05-14T11:06:07;0.45;;;0.20;;
45867;SDS011;31582;45.490;7.860;2023-05-14T11:08:35;0.40;;;0.20;;
45867;SDS011;31582;45.490;7.860;2023-05-14T11:11:04;0.80;;;0.20;;
45867;SDS011;31582;45.490;7.860;2023-05-14T11:13:31;0.73;;;0.30;;
45867;SDS011;31582;45.490;7.860;2023-05-14T11:16:00;0.70;;;0.20;;
45867;SDS011;31582;45.490;7.860;2023-05-14T11:18:46;0.43;;;0.20;;
45867;SDS011;31582;45.490;7.860;2023-05-14T11:21:13;2.53;;;0.30;;
45867;SDS011;31582;45.490;7.860;2023-05-14T11:23:45;1.40;;;0.30;;
45867;SDS011;31582;45.490;7.860;2023-05-14T11:26:12;0.40;;;0.20;;
45867;SDS011;31582;45.490;7.860;2023-05-14T11:28:39;0.50;;;0.20;;
45867;SDS011;31582;45.490;7.860;2023-05-14T11:31:06;0.40;;;0.30;;
45867;SDS011;31582;45.490;7.860;2023-05-14T11:33:33;0.40;;;0.22;;
45867;SDS011;31582;45.490;7.860;2023-05-14T11:36:01;1.05;;;0.20;;
45867;SDS011;31582;45.490;7.860;2023-05-14T11:38:28;0.30;;;0.20;;
45867;SDS011;31582;45.490;7.860;2023-05-14T11:40:56;0.38;;;0.10;;
45867;SDS011;31582;45.490;7.860;2023-05-14T11:43:24;0.57;;;0.20;;
45867;SDS011;31582;45.490;7.860;2023-05-14T11:45:54;0.98;;;0.30;;
45867;SDS011;31582;45.490;7.860;2023-05-14T11:48:22;1.20;;;0.30;;
45867;SDS011;31582;45.490;7.860;2023-05-14T11:50:51;0.37;;;0.20;;
45867;SDS011;31582;45.490;7.860;2023-05-14T11:53:18;0.50;;;0.30;;
45867;SDS011;31582;45.490;7.860;2023-05-14T11:55:56;0.40;;;0.20;;
45867;SDS011;31582;45.490;7.860;2023-05-14T11:58:23;0.40;;;0.30;;
45867;SDS011;31582;45.490;7.860;2023-05-14T12:00:51;0.40;;;0.20;;
45867;SDS011;31582;45.490;7.860;2023-05-14T12:03:18;1.00;;;0.20;;
45867;SDS011;31582;45.490;7.860;2023-05-14T12:05:55;0.90;;;0.20;;
45867;SDS011;31582;45.490;7.860;2023-05-14T12:08:28;0.50;;;0.20;;
45867;SDS011;31582;45.490;7.860;2023-05-14T12:10:59;0.20;;;0.20;;
45867;SDS011;31582;45.490;7.860;2023-05-14T12:13:27;0.47;;;0.30;;
45867;SDS011;31582;45.490;7.860;2023-05-14T12:15:56;2.00;;;0.30;;
45867;SDS011;31582;45.490;7.860;2023-05-14T12:18:28;3.60;;;0.50;;
45867;SDS011;31582;45.490;7.860;2023-05-14T12:21:03;0.70;;;0.30;;
45867;SDS011;31582;45.490;7.860;2023-05-14T12:23:33;1.25;;;0.40;;
45867;SDS011;31582;45.490;7.860;2023-05-14T12:26:01;0.68;;;0.30;;
45867;SDS011;31582;45.490;7.860;2023-05-14T12:28:37;1.05;;;0.50;;
45867;SDS011;31582;45.490;7.860;2023-05-14T12:31:08;0.60;;;0.40;;
45867;SDS011;31582;45.490;7.860;2023-05-14T12:33:36;0.98;;;0.50;;
45867;SDS011;31582;45.490;7.860;2023-05-14T12:36:02;0.80;;;0.50;;
45867;SDS011;31582;45.490;7.860;2023-05-14T12:38:46;1.85;;;0.50;;
45867;SDS011;31582;45.490;7.860;2023-05-14T12:41:14;0.80;;;0.40;;
45867;SDS011;31582;45.490;7.860;2023-05-14T12:43:43;1.45;;;0.50;;
45867;SDS011;31582;45.490;7.860;2023-05-14T12:46:10;1.07;;;0.47;;
45867;SDS011;31582;45.490;7.860;2023-05-14T12:48:37;0.40;;;0.30;;
45867;SDS011;31582;45.490;7.860;2023-05-14T12:51:04;0.85;;;0.30;;
45867;SDS011;31582;45.490;7.860;2023-05-14T12:53:32;0.40;;;0.30;;
45867;SDS011;31582;45.490;7.860;2023-05-14T12:56:00;0.95;;;0.30;;
45867;SDS011;31582;45.490;7.860;2023-05-14T12:58:28;2.20;;;0.40;;
45867;SDS011;31582;45.490;7.860;2023-05-14T13:00:55;0.82;;;0.40;;
45867;SDS011;31582;45.490;7.860;2023-05-14T13:03:22;0.95;;;0.30;;
45867;SDS011;31582;45.490;7.860;2023-05-14T13:05:52;0.95;;;0.40;;
45867;SDS011;31582;45.490;7.860;2023-05-14T13:08:20;1.50;;;0.40;;
45867;SDS011;31582;45.490;7.860;2023-05-14T13:10:50;1.77;;;0.40;;
45867;SDS011;31582;45.490;7.860;2023-05-14T13:13:18;0.55;;;0.30;;
45867;SDS011;31582;45.490;7.860;2023-05-14T13:15:45;0.32;;;0.20;;
45867;SDS011;31582;45.490;7.860;2023-05-14T13:18:12;0.47;;;0.20;;
45867;SDS011;31582;45.490;7.860;2023-05-14T13:20:39;0.40;;;0.20;;
45867;SDS011;31582;45.490;7.860;2023-05-14T13:23:08;0.90;;;0.20;;
45867;SDS011;31582;45.490;7.860;2023-05-14T13:25:35;0.63;;;0.30;;
45867;SDS011;31582;45.490;7.860;2023-05-14T13:28:02;0.60;;;0.30;;
45867;SDS011;31582;45.490;7.860;2023-05-14T13:30:30;0.47;;;0.20;;
45867;SDS011;31582;45.490;7.860;2023-05-14T13:32:58;1.20;;;0.20;;
45867;SDS011;31582;45.490;7.860;2023-05-14T13:35:25;0.30;;;0.20;;
45867;SDS011;31582;45.490;7.860;2023-05-14T13:37:52;1.20;;;0.40;;
45867;SDS011;31582;45.490;7.860;2023-05-14T13:40:19;0.70;;;0.35;;
45867;SDS011;31582;45.490;7.860;2023-05-14T13:42:46;0.50;;;0.30;;
45867;SDS011;31582;45.490;7.860;2023-05-14T13:45:13;0.57;;;0.20;;
45867;SDS011;31582;45.490;7.860;2023-05-14T13:47:39;0.35;;;0.20;;
45867;SDS011;31582;45.490;7.860;2023-05-14T13:50:06;0.30;;;0.20;;
45867;SDS011;31582;45.490;7.860;2023-05-14T13:52:34;0.60;;;0.20;;
45867;SDS011;31582;45.490;7.860;2023-05-14T13:55:01;1.13;;;0.30;;
45867;SDS011;31582;45.490;7.860;2023-05-14T13:57:28;0.95;;;0.20;;
45867;SDS011;31582;45.490;7.860;2023-05-14T13:59:55;1.15;;;0.20;;
45867;SDS011;31582;45.490;7.860;2023-05-14T14:02:22;1.90;;;0.43;;
45867;SDS011;31582;45.490;7.860;2023-05-14T14:04:49;0.47;;;0.20;;
45867;SDS011;31582;45.490;7.860;2023-05-14T14:07:16;0.40;;;0.20;;
45867;SDS011;31582;45.490;7.860;2023-05-14T14:09:42;0.52;;;0.30;;
45867;SDS011;31582;45.490;7.860;2023-05-14T14:12:10;0.40;;;0.20;;
45867;SDS011;31582;45.490;7.860;2023-05-14T14:14:37;0.30;;;0.20;;
45867;SDS011;31582;45.490;7.860;2023-05-14T14:17:04;0.88;;;0.30;;
45867;SDS011;31582;45.490;7.860;2023-05-14T14:19:31;0.40;;;0.20;;
45867;SDS011;31582;45.490;7.860;2023-05-14T14:21:57;1.40;;;0.20;;
45867;SDS011;31582;45.490;7.860;2023-05-14T14:24:24;0.40;;;0.20;;
45867;SDS011;31582;45.490;7.860;2023-05-14T14:26:51;0.20;;;0.10;;
45867;SDS011;31582;45.490;7.860;2023-05-14T14:29:18;0.95;;;0.30;;
45867;SDS011;31582;45.490;7.860;2023-05-14T14:31:46;0.30;;;0.25;;
45867;SDS011;31582;45.490;7.860;2023-05-14T14:34:13;0.52;;;0.17;;
45867;SDS011;31582;45.490;7.860;2023-05-14T14:36:40;0.28;;;0.20;;
45867;SDS011;31582;45.490;7.860;2023-05-14T14:39:07;0.55;;;0.20;;
45867;SDS011;31582;45.490;7.860;2023-05-14T14:41:33;0.50;;;0.20;;
45867;SDS011;31582;45.490;7.860;2023-05-14T14:44:00;0.30;;;0.20;;
45867;SDS011;31582;45.490;7.860;2023-05-14T14:46:28;0.68;;;0.32;;
45867;SDS011;31582;45.490;7.860;2023-05-14T14:48:54;0.20;;;0.20;;
45867;SDS011;31582;45.490;7.860;2023-05-14T14:51:21;0.30;;;0.20;;
45867;SDS011;31582;45.490;7.860;2023-05-14T14:53:48;0.40;;;0.30;;
45867;SDS011;31582;45.490;7.860;2023-05-14T14:56:15;0.60;;;0.20;;
45867;SDS011;31582;45.490;7.860;2023-05-14T14:58:42;0.40;;;0.20;;
45867;SDS011;31582;45.490;7.860;2023-05-14T15:01:10;0.45;;;0.30;;
45867;SDS011;31582;45.490;7.860;2023-05-14T15:03:37;0.15;;;0.15;;
45867;SDS011;31582;45.490;7.860;2023-05-14T15:06:04;1.70;;;0.30;;
45867;SDS011;31582;45.490;7.860;2023-05-14T15:08:31;0.60;;;0.20;;
45867;SDS011;31582;45.490;7.860;2023-05-14T15:10:58;0.20;;;0.13;;
45867;SDS011;31582;45.490;7.860;2023-05-14T15:13:25;0.20;;;0.10;;
45867;SDS011;31582;45.490;7.860;2023-05-14T15:15:52;0.77;;;0.20;;
45867;SDS011;31582;45.490;7.860;2023-05-14T15:18:19;0.30;;;0.20;;
45867;SDS011;31582;45.490;7.860;2023-05-14T15:20:46;0.45;;;0.20;;
45867;SDS011;31582;45.490;7.860;2023-05-14T15:23:13;0.20;;;0.20;;
45867;SDS011;31582;45.490;7.860;2023-05-14T15:25:40;0.50;;;0.28;;
45867;SDS011;31582;45.490;7.860;2023-05-14T15:28:07;0.65;;;0.20;;
45867;SDS011;31582;45.490;7.860;2023-05-14T15:30:34;0.40;;;0.10;;
45867;SDS011;31582;45.490;7.860;2023-05-14T15:33:01;0.10;;;0.10;;
45867;SDS011;31582;45.490;7.860;2023-05-14T15:35:28;0.38;;;0.20;;
45867;SDS011;31582;45.490;7.860;2023-05-14T15:37:55;0.50;;;0.20;;
45867;SDS011;31582;45.490;7.860;2023-05-14T15:40:22;0.40;;;0.20;;
45867;SDS011;31582;45.490;7.860;2023-05-14T15:42:49;0.60;;;0.17;;
45867;SDS011;31582;45.490;7.860;2023-05-14T15:45:16;0.82;;;0.20;;
45867;SDS011;31582;45.490;7.860;2023-05-14T15:47:43;0.85;;;0.13;;
45867;SDS011;31582;45.490;7.860;2023-05-14T15:50:10;0.30;;;0.20;;
45867;SDS011;31582;45.490;7.860;2023-05-14T15:52:38;0.13;;;0.13;;
45867;SDS011;31582;45.490;7.860;2023-05-14T15:55:06;0.70;;;0.13;;